createdAt,value
2018-12-09T00:00:23.327Z,97522.52
2018-12-09T00:02:51.974Z,97518.27
2018-12-09T00:05:20.804Z,97506.53
2018-12-09T00:07:49.516Z,97505.72
2018-12-09T00:10:18.123Z,97507.58
2018-12-09T00:12:46.819Z,97501.44
2018-12-09T00:15:15.414Z,97498.77
2018-12-09T00:17:44.126Z,97494.23
2018-12-09T00:20:12.767Z,97495.84
2018-12-09T00:22:41.327Z,97491.84
2018-12-09T00:25:09.918Z,97487.59
2018-12-09T00:27:38.593Z,97485.70
2018-12-09T00:30:07.211Z,97480.88
2018-12-09T00:32:35.894Z,97475.30
2018-12-09T00:35:04.318Z,97472.07
2018-12-09T00:37:33.090Z,97472.88
2018-12-09T00:40:01.597Z,97469.43
2018-12-09T00:42:30.266Z,97472.63
2018-12-09T00:44:58.828Z,97473.71
2018-12-09T00:47:27.330Z,97462.20
2018-12-09T00:49:55.949Z,97466.20
2018-12-09T00:52:24.518Z,97463.53
2018-12-09T00:54:53.131Z,97460.61
2018-12-09T00:57:21.867Z,97453.66
2018-12-09T00:59:50.287Z,97457.41
2018-12-09T01:02:18.960Z,97458.75
2018-12-09T01:04:47.406Z,97455.36
2018-12-09T01:07:16.039Z,97460.70
2018-12-09T01:09:44.830Z,97455.36
2018-12-09T01:12:13.450Z,97451.88
2018-12-09T01:14:41.933Z,97451.86
2018-12-09T01:17:11.162Z,97447.84
2018-12-09T01:19:39.718Z,97451.58
2018-12-09T01:22:08.479Z,97444.62
2018-12-09T01:24:37.132Z,97443.56
2018-12-09T01:27:05.692Z,97443.59
2018-12-09T01:29:34.167Z,97443.81
2018-12-09T01:32:02.895Z,97436.61
2018-12-09T01:34:31.426Z,97444.34
2018-12-09T01:36:59.871Z,97435.25
2018-12-09T01:39:28.339Z,97435.00
2018-12-09T01:41:57.550Z,97433.94
2018-12-09T01:44:27.062Z,97435.00
2018-12-09T01:46:56.064Z,97435.55
2018-12-09T01:49:24.618Z,97431.83
2018-12-09T01:51:53.266Z,97425.13
2018-12-09T01:54:21.769Z,97427.55
2018-12-09T01:56:50.278Z,97416.86
2018-12-09T01:59:19.016Z,97413.66
2018-12-09T02:01:47.663Z,97403.54
2018-12-09T02:04:16.370Z,97407.02
2018-12-09T02:06:44.987Z,97405.41
2018-12-09T02:09:13.535Z,97404.84
2018-12-09T02:11:42.132Z,97403.52
2018-12-09T02:14:10.566Z,97397.12
2018-12-09T02:16:39.020Z,97396.56
2018-12-09T02:19:18.907Z,97394.70
2018-12-09T02:21:47.878Z,97392.58
2018-12-09T02:24:17.082Z,97392.83
2018-12-09T02:26:45.559Z,97393.39
2018-12-09T02:29:14.318Z,97390.72
2018-12-09T02:31:43.017Z,97391.00
2018-12-09T02:34:11.458Z,97391.58
2018-12-09T02:36:40.311Z,97389.11
2018-12-09T02:39:10.278Z,97385.66
2018-12-09T02:41:38.726Z,97384.32
2018-12-09T02:44:07.344Z,97384.06
2018-12-09T02:46:36.319Z,97384.32
2018-12-09T02:49:04.953Z,97382.45
2018-12-09T02:51:33.638Z,97382.98
2018-12-09T02:54:02.130Z,97379.48
2018-12-09T02:56:30.800Z,97369.36
2018-12-09T02:58:59.654Z,97372.89
2018-12-09T03:01:28.355Z,97373.36
2018-12-09T03:03:56.807Z,97373.97
2018-12-09T03:06:25.494Z,97377.92
2018-12-09T03:08:54.659Z,97374.23
2018-12-09T03:11:23.082Z,97373.91
2018-12-09T03:13:51.751Z,97365.35
2018-12-09T03:16:20.322Z,97365.63
2018-12-09T03:18:50.394Z,97370.41
2018-12-09T03:21:19.388Z,97364.57
2018-12-09T03:23:47.997Z,97360.56
2018-12-09T03:26:16.614Z,97362.20
2018-12-09T03:28:45.545Z,97358.20
2018-12-09T03:31:14.917Z,97349.08
2018-12-09T03:33:43.519Z,97349.36
2018-12-09T03:36:12.160Z,97346.41
2018-12-09T03:38:40.891Z,97348.61
2018-12-09T03:41:09.395Z,97346.94
2018-12-09T03:43:37.846Z,97348.27
2018-12-09T03:46:06.611Z,97352.00
2018-12-09T03:48:35.155Z,97347.72
2018-12-09T03:51:03.844Z,97348.50
2018-12-09T03:53:32.612Z,97346.38
2018-12-09T03:56:01.055Z,97339.70
2018-12-09T03:58:29.611Z,97344.50
2018-12-09T04:00:58.049Z,97340.23
2018-12-09T04:03:26.762Z,97337.31
2018-12-09T04:05:55.510Z,97334.90
2018-12-09T04:08:24.148Z,97334.37
2018-12-09T04:10:52.719Z,97327.41
2018-12-09T04:13:21.963Z,97320.74
2018-12-09T04:15:50.425Z,97323.39
2018-12-09T04:18:19.187Z,97326.08
2018-12-09T04:20:47.936Z,97325.83
2018-12-09T04:23:16.568Z,97320.74
2018-12-09T04:25:45.193Z,97323.41
2018-12-09T04:28:14.251Z,97319.68
2018-12-09T04:30:42.704Z,97322.08
2018-12-09T04:33:11.451Z,97318.87
2018-12-09T04:35:40.190Z,97315.12
2018-12-09T04:38:08.848Z,97319.13
2018-12-09T04:40:37.519Z,97316.76
2018-12-09T04:43:06.002Z,97317.02
2018-12-09T04:45:34.543Z,97317.03
2018-12-09T04:48:03.303Z,97319.16
2018-12-09T04:50:32.054Z,97321.80
2018-12-09T04:53:00.612Z,97321.52
2018-12-09T04:55:29.374Z,97326.89
2018-12-09T04:57:57.922Z,97326.08
2018-12-09T05:00:37.323Z,97322.38
2018-12-09T05:03:05.918Z,97319.43
2018-12-09T05:05:34.378Z,97328.00
2018-12-09T05:08:03.051Z,97328.83
2018-12-09T05:10:31.611Z,97326.66
2018-12-09T05:13:00.243Z,97323.48
2018-12-09T05:15:28.853Z,97330.16
2018-12-09T05:17:57.598Z,97329.58
2018-12-09T05:20:26.818Z,97329.05
2018-12-09T05:22:55.245Z,97330.39
2018-12-09T05:25:24.251Z,97338.45
2018-12-09T05:27:52.710Z,97343.21
2018-12-09T05:30:21.342Z,97338.92
2018-12-09T05:32:49.940Z,97340.53
2018-12-09T05:35:19.175Z,97342.45
2018-12-09T05:37:47.915Z,97347.47
2018-12-09T05:40:16.400Z,97350.39
2018-12-09T05:42:44.965Z,97353.34
2018-12-09T05:45:13.481Z,97353.95
2018-12-09T05:47:42.174Z,97350.19
2018-12-09T05:50:10.798Z,97349.13
2018-12-09T05:52:39.532Z,97351.80
2018-12-09T05:55:08.214Z,97349.13
2018-12-09T05:57:36.640Z,97356.01
2018-12-09T06:00:05.402Z,97360.03
2018-12-09T06:02:45.111Z,97365.69
2018-12-09T06:05:13.649Z,97363.82
2018-12-09T06:07:42.310Z,97369.19
2018-12-09T06:10:10.890Z,97363.55
2018-12-09T06:12:39.638Z,97363.55
2018-12-09T06:15:08.270Z,97367.02
2018-12-09T06:17:36.950Z,97361.34
2018-12-09T06:20:05.634Z,97370.69
2018-12-09T06:22:34.322Z,97368.58
2018-12-09T06:25:03.170Z,97379.06
2018-12-09T06:27:31.757Z,97377.17
2018-12-09T06:30:00.389Z,97380.38
2018-12-09T06:32:29.253Z,97382.52
2018-12-09T06:34:57.806Z,97385.94
2018-12-09T06:37:26.474Z,97383.27
2018-12-09T06:40:06.130Z,97391.58
2018-12-09T06:42:35.234Z,97394.53
2018-12-09T06:45:03.854Z,97401.20
2018-12-09T06:47:32.348Z,97402.04
2018-12-09T06:50:00.779Z,97400.15
2018-12-09T06:52:29.326Z,97407.35
2018-12-09T06:54:58.694Z,97399.59
2018-12-09T06:57:27.491Z,97408.63
2018-12-09T06:59:56.144Z,97408.35
2018-12-09T07:02:24.910Z,97417.23
2018-12-09T07:04:53.338Z,97419.37
2018-12-09T07:07:22.213Z,97422.59
2018-12-09T07:09:50.718Z,97423.41
2018-12-09T07:12:19.347Z,97430.86
2018-12-09T07:14:47.965Z,97425.98
2018-12-09T07:17:16.659Z,97436.67
2018-12-09T07:19:45.357Z,97435.33
2018-12-09T07:22:13.790Z,97445.73
2018-12-09T07:24:42.518Z,97444.98
2018-12-09T07:27:10.947Z,97452.78
2018-12-09T07:29:39.828Z,97454.89
2018-12-09T07:32:08.558Z,97465.58
2018-12-09T07:34:36.985Z,97461.81
2018-12-09T07:37:06.376Z,97469.30
2018-12-09T07:39:35.090Z,97472.44
2018-12-09T07:42:03.531Z,97478.37
2018-12-09T07:44:31.958Z,97487.22
2018-12-09T07:47:00.827Z,97483.48
2018-12-09T07:49:29.354Z,97492.06
2018-12-09T07:51:57.785Z,97497.93
2018-12-09T07:54:26.815Z,97499.52
2018-12-09T07:56:55.246Z,97496.56
2018-12-09T07:59:23.914Z,97507.49
2018-12-09T08:01:52.542Z,97508.02
2018-12-09T08:04:21.642Z,97520.59
2018-12-09T08:06:50.190Z,97517.68
2018-12-09T08:09:18.707Z,97520.31
2018-12-09T08:11:47.260Z,97530.94
2018-12-09T08:14:15.959Z,97533.14
2018-12-09T08:16:44.514Z,97539.20
2018-12-09T08:19:12.946Z,97541.59
2018-12-09T08:21:41.605Z,97544.53
2018-12-09T08:24:10.188Z,97553.88
2018-12-09T08:26:38.739Z,97555.50
2018-12-09T08:29:07.158Z,97567.83
2018-12-09T08:31:36.678Z,97572.11
2018-12-09T08:34:05.307Z,97575.52
2018-12-09T08:36:33.867Z,97573.10
2018-12-09T08:39:02.503Z,97578.69
2018-12-09T08:41:31.210Z,97582.98
2018-12-09T08:43:59.782Z,97586.20
2018-12-09T08:46:28.476Z,97590.80
2018-12-09T08:48:57.331Z,97594.46
2018-12-09T08:51:26.635Z,97601.38
2018-12-09T08:53:55.238Z,97602.72
2018-12-09T08:56:23.997Z,97605.14
2018-12-09T08:58:52.651Z,97607.78
2018-12-09T09:01:21.235Z,97619.80
2018-12-09T09:03:50.696Z,97621.45
2018-12-09T09:06:19.234Z,97628.65
2018-12-09T09:08:47.985Z,97627.59
2018-12-09T09:11:16.434Z,97629.25
2018-12-09T09:13:45.102Z,97636.09
2018-12-09T09:16:13.619Z,97643.55
2018-12-09T09:18:42.430Z,97653.70
2018-12-09T09:21:11.001Z,97660.45
2018-12-09T09:23:39.579Z,97657.50
2018-12-09T09:26:08.171Z,97668.98
2018-12-09T09:28:36.751Z,97670.92
2018-12-09T09:31:05.233Z,97671.66
2018-12-09T09:33:33.946Z,97676.44
2018-12-09T09:36:02.393Z,97680.20
2018-12-09T09:38:30.977Z,97684.45
2018-12-09T09:40:59.707Z,97691.37
2018-12-09T09:43:28.287Z,97698.56
2018-12-09T09:45:56.964Z,97702.61
2018-12-09T09:48:25.823Z,97704.47
2018-12-09T09:50:54.390Z,97706.09
2018-12-09T09:53:23.135Z,97712.24
2018-12-09T09:55:51.702Z,97717.38
2018-12-09T09:58:20.499Z,97722.40
2018-12-09T10:00:49.258Z,97722.71
2018-12-09T10:03:25.710Z,97720.78
2018-12-09T10:05:48.706Z,97721.59
2018-12-09T10:08:17.341Z,97725.06
2018-12-09T10:10:45.914Z,97728.80
2018-12-09T10:13:14.530Z,97728.80
2018-12-09T10:15:43.190Z,97730.66
2018-12-09T10:18:11.693Z,97736.52
2018-12-09T10:20:40.578Z,97744.81
2018-12-09T10:23:09.193Z,97747.48
2018-12-09T10:25:37.738Z,97748.53
2018-12-09T10:28:06.683Z,97750.68
2018-12-09T10:30:35.285Z,97753.88
2018-12-09T10:33:03.954Z,97765.94
2018-12-09T10:35:32.670Z,97765.94
2018-12-09T10:38:01.616Z,97772.41
2018-12-09T10:40:30.166Z,97774.95
2018-12-09T10:42:58.798Z,97783.25
2018-12-09T10:45:27.622Z,97782.97
2018-12-09T10:47:56.270Z,97783.53
2018-12-09T10:50:24.782Z,97785.75
2018-12-09T10:52:53.261Z,97788.14
2018-12-09T10:55:21.691Z,97789.48
2018-12-09T10:57:50.259Z,97796.44
2018-12-09T11:00:22.978Z,97799.11
2018-12-09T11:02:52.242Z,97796.60
2018-12-09T11:05:20.836Z,97800.61
2018-12-09T11:07:49.542Z,97801.13
2018-12-09T11:10:17.962Z,97804.38
2018-12-09T11:12:46.583Z,97804.90
2018-12-09T11:15:15.274Z,97810.84
2018-12-09T11:17:43.698Z,97813.80
2018-12-09T11:20:12.382Z,97821.56
2018-12-09T11:22:42.915Z,97822.02
2018-12-09T11:25:11.779Z,97820.40
2018-12-09T11:27:40.450Z,97822.26
2018-12-09T11:30:09.231Z,97829.17
2018-12-09T11:32:37.956Z,97830.27
2018-12-09T11:35:06.603Z,97834.88
2018-12-09T11:37:35.802Z,97831.89
2018-12-09T11:40:05.296Z,97838.52
2018-12-09T11:42:33.843Z,97849.77
2018-12-09T11:45:02.262Z,97850.38
2018-12-09T11:47:31.345Z,97850.30
2018-12-09T11:50:00.015Z,97851.70
2018-12-09T11:52:29.166Z,97851.39
2018-12-09T11:54:57.722Z,97858.83
2018-12-09T11:57:26.387Z,97862.80
2018-12-09T11:59:55.043Z,97869.59
2018-12-09T12:02:23.815Z,97877.55
2018-12-09T12:04:52.314Z,97874.64
2018-12-09T12:07:20.899Z,97883.18
2018-12-09T12:09:49.810Z,97884.71
2018-12-09T12:12:18.752Z,97880.30
2018-12-09T12:14:47.386Z,97892.45
2018-12-09T12:17:15.814Z,97890.98
2018-12-09T12:19:44.751Z,97891.27
2018-12-09T12:22:13.384Z,97901.42
2018-12-09T12:24:41.952Z,97897.94
2018-12-09T12:27:10.823Z,97896.80
2018-12-09T12:29:39.655Z,97904.05
2018-12-09T12:32:08.146Z,97906.44
2018-12-09T12:34:36.753Z,97911.78
2018-12-09T12:37:05.194Z,97918.74
2018-12-09T12:39:34.027Z,97924.08
2018-12-09T12:42:02.583Z,97924.25
2018-12-09T12:44:31.108Z,97927.20
2018-12-09T12:46:59.567Z,97933.59
2018-12-09T12:49:28.530Z,97933.31
2018-12-09T12:51:56.986Z,97940.22
2018-12-09T12:54:25.584Z,97943.09
2018-12-09T12:56:54.153Z,97952.72
2018-12-09T12:59:22.859Z,97957.77
2018-12-09T13:01:51.386Z,97958.30
2018-12-09T13:04:19.854Z,97967.36
2018-12-09T13:06:48.494Z,97964.97
2018-12-09T13:09:17.467Z,97966.02
2018-12-09T13:11:46.014Z,97968.74
2018-12-09T13:14:14.614Z,97973.27
2018-12-09T13:16:43.198Z,97972.98
2018-12-09T13:19:12.015Z,97977.56
2018-12-09T13:21:40.658Z,97984.20
2018-12-09T13:24:09.218Z,97983.95
2018-12-09T13:26:37.760Z,97989.30
2018-12-09T13:29:06.364Z,97992.44
2018-12-09T13:31:34.918Z,97991.60
2018-12-09T13:34:03.367Z,97993.17
2018-12-09T13:36:31.922Z,98002.60
2018-12-09T13:39:00.591Z,98005.19
2018-12-09T13:41:29.495Z,98002.28
2018-12-09T13:43:57.928Z,98001.79
2018-12-09T13:46:26.479Z,98003.94
2018-12-09T13:48:55.534Z,98007.13
2018-12-09T13:51:24.070Z,98022.84
2018-12-09T13:53:52.522Z,98027.60
2018-12-09T13:56:21.202Z,98023.88
2018-12-09T13:58:50.274Z,98028.65
2018-12-09T14:01:18.822Z,98035.56
2018-12-09T14:03:47.274Z,98033.70
2018-12-09T14:06:15.750Z,98040.09
2018-12-09T14:08:44.580Z,98040.66
2018-12-09T14:11:13.080Z,98043.05
2018-12-09T14:13:41.515Z,98044.15
2018-12-09T14:16:10.079Z,98051.06
2018-12-09T14:18:39.047Z,98053.73
2018-12-09T14:21:07.491Z,98057.63
2018-12-09T14:23:36.087Z,98057.69
2018-12-09T14:26:04.583Z,98060.06
2018-12-09T14:28:33.306Z,98069.17
2018-12-09T14:31:01.858Z,98066.74
2018-12-09T14:33:30.642Z,98068.89
2018-12-09T14:35:59.182Z,98072.42
2018-12-09T14:38:27.834Z,98076.72
2018-12-09T14:40:56.534Z,98077.48
2018-12-09T14:43:25.603Z,98076.66
2018-12-09T14:45:54.271Z,98085.95
2018-12-09T14:48:22.998Z,98088.16
2018-12-09T14:50:51.628Z,98090.54
2018-12-09T14:53:20.327Z,98094.55
2018-12-09T14:55:49.794Z,98094.84
2018-12-09T14:58:18.421Z,98094.49
2018-12-09T15:00:46.887Z,98101.98
2018-12-09T15:03:15.735Z,98101.08
2018-12-09T15:05:44.184Z,98107.70
2018-12-09T15:08:13.183Z,98110.75
2018-12-09T15:10:41.878Z,98116.81
2018-12-09T15:13:10.514Z,98121.42
2018-12-09T15:15:38.948Z,98120.09
2018-12-09T15:18:07.730Z,98127.05
2018-12-09T15:20:36.231Z,98136.11
2018-12-09T15:23:04.978Z,98138.46
2018-12-09T15:25:33.786Z,98133.87
2018-12-09T15:28:02.530Z,98144.55
2018-12-09T15:30:31.101Z,98149.31
2018-12-09T15:32:59.870Z,98156.14
2018-12-09T15:35:28.487Z,98161.77
2018-12-09T15:37:57.147Z,98164.21
2018-12-09T15:40:25.795Z,98172.75
2018-12-09T15:42:54.276Z,98179.13
2018-12-09T15:45:23.135Z,98179.27
2018-12-09T15:47:51.753Z,98181.82
2018-12-09T15:50:20.414Z,98182.17
2018-12-09T15:52:48.846Z,98180.08
2018-12-09T15:55:17.518Z,98190.24
2018-12-09T15:57:46.198Z,98189.20
2018-12-09T16:00:14.762Z,98193.66
2018-12-09T16:02:43.539Z,98198.77
2018-12-09T16:05:12.002Z,98209.16
2018-12-09T16:07:40.611Z,98209.33
2018-12-09T16:10:10.657Z,98215.02
2018-12-09T16:12:39.274Z,98218.51
2018-12-09T16:15:07.954Z,98218.74
2018-12-09T16:17:36.427Z,98217.41
2018-12-09T16:20:05.797Z,98229.19
2018-12-09T16:22:34.226Z,98225.70
2018-12-09T16:25:02.760Z,98230.30
2018-12-09T16:27:31.307Z,98235.05
2018-12-09T16:29:59.895Z,98241.14
2018-12-09T16:32:28.574Z,98234.18
2018-12-09T16:34:57.205Z,98240.39
2018-12-09T16:37:25.836Z,98242.92
2018-12-09T16:39:54.557Z,98246.02
2018-12-09T16:42:23.007Z,98246.61
2018-12-09T16:44:51.638Z,98251.95
2018-12-09T16:47:20.494Z,98257.75
2018-12-09T16:49:49.142Z,98258.86
2018-12-09T16:52:17.892Z,98258.33
2018-12-09T16:54:46.478Z,98267.97
2018-12-09T16:57:14.955Z,98270.64
2018-12-09T16:59:43.614Z,98278.98
2018-12-09T17:02:12.138Z,98275.69
2018-12-09T17:04:40.704Z,98276.15
2018-12-09T17:07:09.282Z,98283.41
2018-12-09T17:09:38.022Z,98288.23
2018-12-09T17:12:06.555Z,98286.66
2018-12-09T17:14:35.218Z,98293.66
2018-12-09T17:17:03.819Z,98292.91
2018-12-09T17:19:32.546Z,98292.85
2018-12-09T17:22:00.973Z,98297.05
2018-12-09T17:24:29.419Z,98307.60
2018-12-09T17:26:57.878Z,98312.36
2018-12-09T17:29:26.414Z,98311.55
2018-12-09T17:31:55.230Z,98315.32
2018-12-09T17:34:23.794Z,98309.69
2018-12-09T17:36:52.419Z,98309.45
2018-12-09T17:39:21.266Z,98314.22
2018-12-09T17:41:49.819Z,98323.04
2018-12-09T17:44:18.257Z,98323.56
2018-12-09T17:46:47.004Z,98333.72
2018-12-09T17:49:15.923Z,98333.40
2018-12-09T17:51:44.531Z,98337.79
2018-12-09T17:54:13.246Z,98344.08
2018-12-09T17:56:42.011Z,98346.33
2018-12-09T17:59:10.588Z,98343.42
2018-12-09T18:01:39.234Z,98347.66
2018-12-09T18:04:07.783Z,98344.02
2018-12-09T18:06:36.350Z,98351.21
2018-12-09T18:09:05.882Z,98350.75
2018-12-09T18:11:34.571Z,98353.66
2018-12-09T18:14:03.062Z,98355.80
2018-12-09T18:16:31.842Z,98355.61
2018-12-09T18:19:00.546Z,98361.31
2018-12-09T18:21:29.220Z,98365.25
2018-12-09T18:23:58.098Z,98363.45
2018-12-09T18:26:26.875Z,98362.64
2018-12-09T18:28:55.862Z,98366.36
2018-12-09T18:31:24.487Z,98367.98
2018-12-09T18:33:53.526Z,98373.26
2018-12-09T18:36:21.982Z,98373.33
2018-12-09T18:38:50.814Z,98378.14
2018-12-09T18:41:19.402Z,98379.48
2018-12-09T18:43:47.950Z,98388.31
2018-12-09T18:46:16.614Z,98387.03
2018-12-09T18:48:45.570Z,98385.34
2018-12-09T18:51:14.438Z,98388.31
2018-12-09T18:53:43.470Z,98387.42
2018-12-09T18:56:12.442Z,98389.34
2018-12-09T18:58:41.031Z,98393.87
2018-12-09T19:01:09.670Z,98398.53
2018-12-09T19:03:38.231Z,98400.63
2018-12-09T19:06:06.718Z,98402.41
2018-12-09T19:08:35.784Z,98400.63
2018-12-09T19:11:04.419Z,98412.34
2018-12-09T19:13:33.322Z,98418.73
2018-12-09T19:16:02.063Z,98417.32
2018-12-09T19:18:30.914Z,98416.50
2018-12-09T19:20:59.546Z,98419.61
2018-12-09T19:23:28.126Z,98414.27
2018-12-09T19:25:58.043Z,98419.25
2018-12-09T19:28:27.086Z,98426.28
2018-12-09T19:30:55.843Z,98433.94
2018-12-09T19:33:24.599Z,98434.45
2018-12-09T19:35:53.168Z,98437.34
2018-12-09T19:38:22.095Z,98440.67
2018-12-09T19:40:51.118Z,98439.86
2018-12-09T19:43:19.802Z,98439.86
2018-12-09T19:45:48.790Z,98448.77
2018-12-09T19:48:17.664Z,98452.25
2018-12-09T19:50:46.370Z,98459.67
2018-12-09T19:53:15.195Z,98469.47
2018-12-09T19:55:43.982Z,98464.72
2018-12-09T19:58:12.702Z,98469.24
2018-12-09T20:00:41.378Z,98470.65
2018-12-09T20:03:10.043Z,98475.41
2018-12-09T20:05:38.570Z,98470.51
2018-12-09T20:08:07.302Z,98474.00
2018-12-09T20:10:35.858Z,98484.68
2018-12-09T20:13:04.543Z,98484.16
2018-12-09T20:15:33.158Z,98494.42
2018-12-09T20:18:01.726Z,98487.07
2018-12-09T20:20:30.450Z,98492.25
2018-12-09T20:22:59.249Z,98494.73
2018-12-09T20:25:27.894Z,98494.63
2018-12-09T20:27:56.518Z,98493.39
2018-12-09T20:30:25.161Z,98495.03
2018-12-09T20:32:53.595Z,98504.45
2018-12-09T20:35:22.251Z,98507.64
2018-12-09T20:37:50.930Z,98509.80
2018-12-09T20:40:19.472Z,98514.75
2018-12-09T20:42:48.359Z,98515.05
2018-12-09T20:45:17.354Z,98522.64
2018-12-09T20:47:45.978Z,98527.17
2018-12-09T20:50:14.751Z,98524.44
2018-12-09T20:52:43.441Z,98524.44
2018-12-09T20:55:12.126Z,98530.21
2018-12-09T20:57:40.561Z,98538.45
2018-12-09T21:00:09.575Z,98536.53
2018-12-09T21:02:38.246Z,98538.51
2018-12-09T21:05:06.964Z,98536.59
2018-12-09T21:07:35.763Z,98540.95
2018-12-09T21:10:05.082Z,98545.19
2018-12-09T21:12:33.750Z,98549.08
2018-12-09T21:15:02.334Z,98549.06
2018-12-09T21:17:30.927Z,98544.46
2018-12-09T21:19:59.527Z,98549.80
2018-12-09T21:22:28.146Z,98558.94
2018-12-09T21:24:56.759Z,98562.13
2018-12-09T21:27:25.503Z,98564.40
2018-12-09T21:29:54.455Z,98561.73
2018-12-09T21:32:23.162Z,98571.60
2018-12-09T21:34:51.714Z,98569.16
2018-12-09T21:37:20.345Z,98571.41
2018-12-09T21:39:49.192Z,98574.58
2018-12-09T21:42:17.767Z,98575.46
2018-12-09T21:44:46.452Z,98571.45
2018-12-09T21:47:15.119Z,98577.55
2018-12-09T21:49:43.834Z,98578.28
2018-12-09T21:52:12.533Z,98579.00
2018-12-09T21:54:41.210Z,98583.33
2018-12-09T21:57:10.174Z,98584.78
2018-12-09T21:59:39.080Z,98587.16
2018-12-09T22:02:07.639Z,98584.34
2018-12-09T22:04:36.255Z,98577.81
2018-12-09T22:07:05.014Z,98589.09
2018-12-09T22:09:33.602Z,98589.09
2018-12-09T22:12:02.348Z,98597.92
2018-12-09T22:14:30.980Z,98604.52
2018-12-09T22:16:59.525Z,98603.41
2018-12-09T22:19:28.233Z,98605.48
2018-12-09T22:21:56.909Z,98601.55
2018-12-09T22:24:25.521Z,98608.83
2018-12-09T22:26:54.070Z,98609.72
2018-12-09T22:29:22.730Z,98609.42
2018-12-09T22:31:51.286Z,98613.13
2018-12-09T22:34:19.711Z,98624.27
2018-12-09T22:36:48.950Z,98620.77
2018-12-09T22:39:17.938Z,98623.67
2018-12-09T22:41:46.486Z,98634.35
2018-12-09T22:44:15.066Z,98640.52
2018-12-09T22:46:43.634Z,98640.29
2018-12-09T22:49:12.298Z,98642.14
2018-12-09T22:51:40.919Z,98642.96
2018-12-09T22:54:09.594Z,98643.26
2018-12-09T22:56:38.305Z,98638.52
2018-12-09T22:59:07.127Z,98638.22
2018-12-09T23:01:35.800Z,98643.26
2018-12-09T23:04:04.528Z,98642.96
2018-12-09T23:06:33.143Z,98644.52
2018-12-09T23:09:01.570Z,98652.09
2018-12-09T23:11:30.235Z,98650.97
2018-12-09T23:13:59.013Z,98650.38
2018-12-09T23:16:27.683Z,98652.45
2018-12-09T23:18:56.242Z,98645.48
2018-12-09T23:21:24.878Z,98654.50
2018-12-09T23:23:53.578Z,98662.52
2018-12-09T23:26:22.006Z,98656.76
2018-12-09T23:28:50.462Z,98656.76
2018-12-09T23:31:19.135Z,98663.22
2018-12-09T23:33:47.811Z,98663.00
2018-12-09T23:36:16.494Z,98661.06
2018-12-09T23:38:45.062Z,98659.84
2018-12-09T23:41:13.697Z,98667.26
2018-12-09T23:43:42.403Z,98671.97
2018-12-09T23:46:10.943Z,98670.34
2018-12-09T23:48:39.586Z,98673.83
2018-12-09T23:51:08.355Z,98676.05
2018-12-09T23:53:36.906Z,98672.48
2018-12-09T23:56:05.610Z,98666.22
2018-12-09T23:58:34.310Z,98664.88
